createdAt,value
2023-02-09T00:01:43.815Z,-2.25
2023-02-09T00:04:11.366Z,-2.20
2023-02-09T00:06:38.941Z,-2.18
2023-02-09T00:09:06.506Z,-2.19
2023-02-09T00:11:52.705Z,-2.16
2023-02-09T00:14:22.095Z,-2.18
2023-02-09T00:16:51.278Z,-2.14
2023-02-09T00:19:19.569Z,-2.14
2023-02-09T00:21:47.902Z,-2.10
2023-02-09T00:24:16.014Z,-2.08
2023-02-09T00:26:44.483Z,-2.09
2023-02-09T00:29:13.475Z,-2.14
2023-02-09T00:31:42.402Z,-2.07
2023-02-09T00:34:10.955Z,-2.07
2023-02-09T00:36:38.625Z,-2.04
2023-02-09T00:39:06.561Z,-2.16
2023-02-09T00:41:52.591Z,-2.10
2023-02-09T00:44:20.297Z,-2.08
2023-02-09T00:46:49.515Z,-2.09
2023-02-09T00:49:17.073Z,-2.13
2023-02-09T00:51:44.950Z,-2.12
2023-02-09T00:54:13.453Z,-2.13
2023-02-09T00:56:41.697Z,-2.16
2023-02-09T00:59:09.359Z,-2.25
2023-02-09T01:01:37.181Z,-2.24
2023-02-09T01:04:05.393Z,-2.34
2023-02-09T01:06:33.922Z,-2.37
2023-02-09T01:09:02.848Z,-2.37
2023-02-09T01:11:30.753Z,-2.44
2023-02-09T01:14:00.516Z,-2.41
2023-02-09T01:16:31.985Z,-2.45
2023-02-09T01:19:01.474Z,-2.47
2023-02-09T01:21:31.048Z,-2.54
2023-02-09T01:23:59.232Z,-2.59
2023-02-09T01:26:27.101Z,-2.74
2023-02-09T01:28:55.041Z,-2.71
2023-02-09T01:31:32.416Z,-2.69
2023-02-09T01:34:02.925Z,-2.74
2023-02-09T01:36:32.082Z,-2.79
2023-02-09T01:39:01.537Z,-2.85
2023-02-09T01:41:29.440Z,-2.98
2023-02-09T01:44:01.612Z,-2.94
2023-02-09T01:46:33.060Z,-2.97
2023-02-09T01:49:19.311Z,-3.03
2023-02-09T01:52:25.925Z,-3.02
2023-02-09T01:55:06.728Z,-3.14
2023-02-09T01:57:45.909Z,-3.11
2023-02-09T02:00:19.653Z,-3.17
2023-02-09T02:02:52.902Z,-3.10
2023-02-09T02:05:21.948Z,-3.10
2023-02-09T02:08:01.097Z,-3.22
2023-02-09T02:10:29.377Z,-3.32
2023-02-09T02:12:57.500Z,-3.37
2023-02-09T02:15:29.960Z,-3.42
2023-02-09T02:18:12.714Z,-3.45
2023-02-09T02:21:08.242Z,-3.47
2023-02-09T02:23:44.869Z,-3.46
2023-02-09T02:26:47.662Z,-3.47
2023-02-09T02:29:37.141Z,-3.45
2023-02-09T02:32:11.043Z,-3.52
2023-02-09T02:34:50.595Z,-3.51
2023-02-09T02:37:44.470Z,-3.54
2023-02-09T02:40:27.500Z,-3.49
2023-02-09T02:43:02.963Z,-3.54
2023-02-09T02:45:40.954Z,-3.55
2023-02-09T02:48:18.951Z,-3.54
2023-02-09T02:51:19.787Z,-3.56
2023-02-09T02:53:54.813Z,-3.60
2023-02-09T02:56:29.218Z,-3.65
2023-02-09T02:59:00.098Z,-3.71
2023-02-09T03:01:34.461Z,-3.68
2023-02-09T03:04:05.349Z,-3.71
2023-02-09T03:06:35.626Z,-3.75
2023-02-09T03:09:03.851Z,-3.71
2023-02-09T03:11:42.806Z,-3.68
2023-02-09T03:14:13.567Z,-3.69
2023-02-09T03:16:52.433Z,-3.69
2023-02-09T03:19:25.870Z,-3.72
2023-02-09T03:22:06.629Z,-3.79
2023-02-09T03:24:46.941Z,-3.77
2023-02-09T03:27:22.327Z,-3.81
2023-02-09T03:29:55.098Z,-3.81
2023-02-09T03:32:23.956Z,-3.79
2023-02-09T03:34:53.009Z,-3.81
2023-02-09T03:37:20.785Z,-3.87
2023-02-09T03:39:48.359Z,-3.85
2023-02-09T03:42:16.211Z,-3.84
2023-02-09T03:44:43.804Z,-3.84
2023-02-09T03:47:11.430Z,-3.87
2023-02-09T03:49:41.003Z,-3.87
2023-02-09T03:52:11.155Z,-3.78
2023-02-09T03:54:39.100Z,-3.78
2023-02-09T03:57:08.093Z,-3.79
2023-02-09T03:59:38.424Z,-3.78
2023-02-09T04:02:08.477Z,-3.74
2023-02-09T04:04:36.656Z,-3.74
2023-02-09T04:07:04.367Z,-3.69
2023-02-09T04:09:31.946Z,-3.47
2023-02-09T04:11:59.536Z,-3.27
2023-02-09T04:14:27.118Z,-2.95
2023-02-09T04:16:54.592Z,-2.70
2023-02-09T04:19:22.243Z,-2.41
2023-02-09T04:21:49.783Z,-2.12
2023-02-09T04:24:26.852Z,-1.88
2023-02-09T04:26:54.499Z,-1.72
2023-02-09T04:29:22.205Z,-1.58
2023-02-09T04:31:49.851Z,-1.47
2023-02-09T04:34:17.643Z,-1.39
2023-02-09T04:36:45.160Z,-1.32
2023-02-09T04:39:12.751Z,-1.28
2023-02-09T04:41:40.310Z,-1.23
2023-02-09T04:44:08.011Z,-1.23
2023-02-09T04:46:35.583Z,-1.17
2023-02-09T04:49:03.425Z,-1.19
2023-02-09T04:51:31.062Z,-1.19
2023-02-09T04:53:58.579Z,-1.17
2023-02-09T04:56:26.337Z,-1.13
2023-02-09T04:59:12.093Z,-1.11
2023-02-09T05:01:39.710Z,-1.04
2023-02-09T05:04:07.281Z,-1.08
2023-02-09T05:06:34.827Z,-1.00
2023-02-09T05:09:02.449Z,-1.04
2023-02-09T05:11:30.015Z,-1.04
2023-02-09T05:13:57.710Z,-0.98
2023-02-09T05:16:25.366Z,-0.98
2023-02-09T05:18:53.108Z,-0.86
2023-02-09T05:21:20.943Z,-0.83
2023-02-09T05:23:48.510Z,-0.77
2023-02-09T05:26:16.105Z,-0.73
2023-02-09T05:28:43.757Z,-0.70
2023-02-09T05:31:11.354Z,-0.65
2023-02-09T05:33:38.921Z,-0.60
2023-02-09T05:36:09.917Z,-0.53
2023-02-09T05:38:37.599Z,-0.47
2023-02-09T05:41:33.624Z,-0.38
2023-02-09T05:44:01.158Z,-0.39
2023-02-09T05:46:28.865Z,-0.44
2023-02-09T05:48:56.426Z,-0.21
2023-02-09T05:51:24.085Z,-0.21
2023-02-09T05:53:53.880Z,-0.20
2023-02-09T05:56:22.877Z,-0.13
2023-02-09T05:58:50.449Z,-0.04
2023-02-09T06:01:18.091Z,0.01
2023-02-09T06:03:45.731Z,0.14
2023-02-09T06:06:13.422Z,0.24
2023-02-09T06:08:41.215Z,0.33
2023-02-09T06:11:09.046Z,0.43
2023-02-09T06:13:36.623Z,0.52
2023-02-09T06:16:04.362Z,0.60
2023-02-09T06:18:31.959Z,0.63
2023-02-09T06:20:59.489Z,0.73
2023-02-09T06:23:27.009Z,0.95
2023-02-09T06:25:54.634Z,1.17
2023-02-09T06:28:22.250Z,1.53
2023-02-09T06:30:54.277Z,1.79
2023-02-09T06:33:21.896Z,2.20
2023-02-09T06:35:51.445Z,2.56
2023-02-09T06:38:20.488Z,3.08
2023-02-09T06:40:48.302Z,3.54
2023-02-09T06:43:16.678Z,4.03
2023-02-09T06:45:44.635Z,4.42
2023-02-09T06:48:12.313Z,4.97
2023-02-09T06:50:40.501Z,6.12
2023-02-09T06:53:08.389Z,6.81
2023-02-09T06:55:36.113Z,7.60
2023-02-09T06:58:04.584Z,8.00
2023-02-09T07:00:32.573Z,8.66
2023-02-09T07:03:00.700Z,9.25
2023-02-09T07:05:28.426Z,9.68
2023-02-09T07:07:57.064Z,10.16
2023-02-09T07:10:24.730Z,10.47
2023-02-09T07:12:52.434Z,11.01
2023-02-09T07:15:20.010Z,11.08
2023-02-09T07:17:47.676Z,11.23
2023-02-09T07:20:15.334Z,11.37
2023-02-09T07:22:42.949Z,11.44
2023-02-09T07:25:10.709Z,11.37
2023-02-09T07:27:38.395Z,11.38
2023-02-09T07:30:06.709Z,11.30
2023-02-09T07:32:34.426Z,11.20
2023-02-09T07:35:02.003Z,11.13
2023-02-09T07:37:31.103Z,11.34
2023-02-09T07:39:58.882Z,11.55
2023-02-09T07:42:26.589Z,11.71
2023-02-09T07:45:01.042Z,11.71
2023-02-09T07:47:30.796Z,11.66
2023-02-09T07:49:58.501Z,11.67
2023-02-09T07:52:26.158Z,11.71
2023-02-09T07:54:53.783Z,11.55
2023-02-09T07:57:21.374Z,11.52
2023-02-09T07:59:49.039Z,11.47
2023-02-09T08:02:38.166Z,11.53
2023-02-09T08:05:11.989Z,11.35
2023-02-09T08:07:41.400Z,11.18
2023-02-09T08:10:09.471Z,10.95
2023-02-09T08:12:55.645Z,10.67
2023-02-09T08:15:24.083Z,10.47
2023-02-09T08:17:54.166Z,10.16
2023-02-09T08:20:25.688Z,9.92
2023-02-09T08:22:56.443Z,9.58
2023-02-09T08:25:25.730Z,9.31
2023-02-09T08:27:54.556Z,9.03
2023-02-09T08:30:22.415Z,8.76
2023-02-09T08:32:50.093Z,8.58
2023-02-09T08:35:17.816Z,8.36
2023-02-09T08:37:45.476Z,8.01
2023-02-09T08:40:15.197Z,7.62
2023-02-09T08:42:42.795Z,7.38
2023-02-09T08:45:10.905Z,7.25
2023-02-09T08:47:39.222Z,6.99
2023-02-09T08:50:07.180Z,6.64
2023-02-09T08:52:34.810Z,6.46
2023-02-09T08:55:02.555Z,6.20
2023-02-09T08:57:43.148Z,5.97
2023-02-09T09:00:13.163Z,5.74
2023-02-09T09:02:40.771Z,5.62
2023-02-09T09:05:08.690Z,5.55
2023-02-09T09:07:36.435Z,5.40
2023-02-09T09:10:04.571Z,5.43
2023-02-09T09:12:32.464Z,5.26
2023-02-09T09:15:00.211Z,5.15
2023-02-09T09:17:28.022Z,4.99
2023-02-09T09:19:56.718Z,4.85
2023-02-09T09:22:24.713Z,4.68
2023-02-09T09:24:54.669Z,4.55
2023-02-09T09:27:22.648Z,4.37
2023-02-09T09:29:50.246Z,4.24
2023-02-09T09:32:18.171Z,3.98
2023-02-09T09:34:45.860Z,4.05
2023-02-09T09:37:13.549Z,3.96
2023-02-09T09:39:41.170Z,3.85
2023-02-09T09:42:23.813Z,4.07
2023-02-09T09:44:52.279Z,3.80
2023-02-09T09:47:30.855Z,3.78
2023-02-09T09:49:58.523Z,3.60
2023-02-09T09:52:40.038Z,3.72
2023-02-09T09:55:09.858Z,3.59
2023-02-09T09:57:45.801Z,3.53
2023-02-09T10:00:23.517Z,3.38
2023-02-09T10:02:51.372Z,3.23
2023-02-09T10:05:25.201Z,3.24
2023-02-09T10:07:55.844Z,3.03
2023-02-09T10:10:57.428Z,3.22
2023-02-09T10:13:27.937Z,2.99
2023-02-09T10:15:58.436Z,2.90
2023-02-09T10:18:26.117Z,2.78
2023-02-09T10:20:57.227Z,2.74
2023-02-09T10:23:50.036Z,2.75
2023-02-09T10:26:31.344Z,2.60
2023-02-09T10:29:07.475Z,2.62
2023-02-09T10:31:48.768Z,2.69
2023-02-09T10:34:38.705Z,2.76
2023-02-09T10:37:36.165Z,2.77
2023-02-09T10:40:17.796Z,2.23
2023-02-09T10:43:00.774Z,2.39
2023-02-09T10:45:37.731Z,2.35
2023-02-09T10:48:14.112Z,2.35
2023-02-09T10:51:01.478Z,2.42
2023-02-09T10:53:42.117Z,2.31
2023-02-09T10:56:15.749Z,2.23
2023-02-09T10:58:51.049Z,2.25
2023-02-09T11:01:23.822Z,2.21
2023-02-09T11:04:06.354Z,2.04
2023-02-09T11:06:58.715Z,2.07
2023-02-09T11:09:34.362Z,1.94
2023-02-09T11:12:02.440Z,1.93
2023-02-09T11:14:30.494Z,1.88
2023-02-09T11:17:12.084Z,1.91
2023-02-09T11:19:39.669Z,1.82
2023-02-09T11:22:46.093Z,1.98
2023-02-09T11:25:28.176Z,1.86
2023-02-09T11:28:17.160Z,1.91
2023-02-09T11:31:17.086Z,2.00
2023-02-09T11:33:59.143Z,1.84
2023-02-09T11:36:36.036Z,1.75
2023-02-09T11:39:31.274Z,1.79
2023-02-09T11:42:29.808Z,1.74
2023-02-09T11:45:07.357Z,1.64
2023-02-09T11:47:52.225Z,1.62
2023-02-09T11:50:57.130Z,1.76
2023-02-09T11:53:54.368Z,1.59
2023-02-09T11:56:25.252Z,1.43
2023-02-09T11:59:14.761Z,1.48
2023-02-09T12:02:02.202Z,1.43
2023-02-09T12:04:33.328Z,1.38
2023-02-09T12:07:05.891Z,1.38
2023-02-09T12:09:46.570Z,1.35
2023-02-09T12:12:23.104Z,1.35
2023-02-09T12:15:08.820Z,1.31
2023-02-09T12:17:43.720Z,1.27
2023-02-09T12:20:45.128Z,1.33
2023-02-09T12:23:36.435Z,1.32
2023-02-09T12:26:16.288Z,1.20
2023-02-09T12:28:48.464Z,1.05
2023-02-09T12:31:25.820Z,1.07
2023-02-09T12:33:59.518Z,0.99
2023-02-09T12:36:35.262Z,0.93
2023-02-09T12:39:06.023Z,0.90
2023-02-09T12:41:41.110Z,0.89
2023-02-09T12:44:11.894Z,0.82
2023-02-09T12:46:48.175Z,0.79
2023-02-09T12:49:16.071Z,0.70
2023-02-09T12:51:58.501Z,0.70
2023-02-09T12:54:40.216Z,0.54
2023-02-09T12:57:17.188Z,0.62
2023-02-09T12:59:51.297Z,0.57
2023-02-09T13:02:50.939Z,0.42
2023-02-09T13:05:26.488Z,0.42
2023-02-09T13:08:02.968Z,0.29
2023-02-09T13:10:44.841Z,0.30
2023-02-09T13:13:12.508Z,0.21
2023-02-09T13:16:10.138Z,0.38
2023-02-09T13:18:57.983Z,0.34
2023-02-09T13:21:53.506Z,0.47
2023-02-09T13:24:34.162Z,0.33
2023-02-09T13:27:02.181Z,0.32
2023-02-09T13:29:33.802Z,0.16
2023-02-09T13:32:16.882Z,0.35
2023-02-09T13:34:52.806Z,0.39
2023-02-09T13:37:39.509Z,0.36
2023-02-09T13:40:27.657Z,0.32
2023-02-09T13:43:04.363Z,0.25
2023-02-09T13:45:32.151Z,0.12
2023-02-09T13:48:00.931Z,0.02
2023-02-09T13:50:29.624Z,-0.02
2023-02-09T13:53:11.016Z,0.06
2023-02-09T13:55:45.769Z,-0.10
2023-02-09T13:58:26.349Z,0.05
2023-02-09T14:00:58.969Z,-0.20
2023-02-09T14:03:58.876Z,-0.04
2023-02-09T14:06:55.404Z,-0.04
2023-02-09T14:09:43.824Z,-0.05
2023-02-09T14:12:56.025Z,-0.02
2023-02-09T14:15:45.083Z,0.09
2023-02-09T14:18:51.031Z,-0.02
2023-02-09T14:21:38.255Z,-0.11
2023-02-09T14:24:15.120Z,-0.11
2023-02-09T14:26:54.199Z,-0.19
2023-02-09T14:29:23.877Z,-0.20
2023-02-09T14:32:27.408Z,-0.20
2023-02-09T14:35:00.125Z,-0.33
2023-02-09T14:37:30.095Z,-0.45
2023-02-09T14:40:01.649Z,-0.38
2023-02-09T14:42:33.250Z,-0.45
2023-02-09T14:45:22.244Z,-0.41
2023-02-09T14:47:49.760Z,-0.36
2023-02-09T14:50:20.886Z,-0.38
2023-02-09T14:52:52.292Z,-0.33
2023-02-09T14:55:25.277Z,-0.32
2023-02-09T14:57:52.980Z,-0.35
2023-02-09T15:00:26.092Z,-0.28
2023-02-09T15:02:54.715Z,-0.29
2023-02-09T15:05:24.265Z,-0.25
2023-02-09T15:07:59.602Z,-0.20
2023-02-09T15:10:35.314Z,-0.24
2023-02-09T15:13:04.542Z,-0.35
2023-02-09T15:15:33.658Z,-0.28
2023-02-09T15:18:02.006Z,-0.28
2023-02-09T15:20:31.697Z,-0.36
2023-02-09T15:23:01.058Z,-0.38
2023-02-09T15:25:29.828Z,-0.33
2023-02-09T15:27:59.969Z,-0.33
2023-02-09T15:30:33.416Z,-0.26
2023-02-09T15:33:06.217Z,-0.38
2023-02-09T15:35:36.727Z,-0.20
2023-02-09T15:38:04.488Z,-0.15
2023-02-09T15:41:11.209Z,-0.06
2023-02-09T15:43:57.191Z,-0.25
2023-02-09T15:46:43.296Z,-0.12
2023-02-09T15:49:11.166Z,-0.21
2023-02-09T15:51:40.191Z,-0.14
2023-02-09T15:54:20.344Z,-0.06
2023-02-09T15:56:48.419Z,-0.03
2023-02-09T15:59:21.681Z,0.01
2023-02-09T16:01:50.514Z,0.02
2023-02-09T16:04:18.803Z,0.08
2023-02-09T16:06:50.005Z,0.10
2023-02-09T16:09:28.192Z,0.20
2023-02-09T16:11:56.161Z,-0.10
2023-02-09T16:14:26.607Z,-0.05
2023-02-09T16:16:54.364Z,0.02
2023-02-09T16:19:22.063Z,0.07
2023-02-09T16:21:53.331Z,-0.06
2023-02-09T16:24:41.490Z,0.26
2023-02-09T16:27:28.965Z,0.29
2023-02-09T16:29:58.259Z,0.22
2023-02-09T16:32:28.855Z,0.19
2023-02-09T16:35:07.432Z,0.03
2023-02-09T16:37:44.302Z,0.14
2023-02-09T16:40:17.814Z,0.30
2023-02-09T16:42:47.203Z,0.24
2023-02-09T16:45:17.864Z,0.23
2023-02-09T16:47:52.081Z,0.39
2023-02-09T16:50:47.248Z,0.40
2023-02-09T16:53:18.037Z,0.24
2023-02-09T16:55:49.121Z,0.22
2023-02-09T16:58:17.418Z,0.28
2023-02-09T17:00:45.676Z,0.23
2023-02-09T17:03:17.836Z,0.31
2023-02-09T17:05:49.116Z,0.34
2023-02-09T17:08:26.916Z,0.38
2023-02-09T17:10:56.493Z,0.29
2023-02-09T17:13:24.364Z,0.22
2023-02-09T17:16:00.009Z,0.17
2023-02-09T17:18:34.689Z,0.29
2023-02-09T17:21:13.764Z,0.26
2023-02-09T17:23:43.022Z,0.11
2023-02-09T17:26:11.937Z,0.02
2023-02-09T17:28:40.880Z,0.04
2023-02-09T17:31:27.390Z,0.15
2023-02-09T17:33:58.100Z,0.11
2023-02-09T17:36:28.656Z,0.10
2023-02-09T17:38:58.648Z,0.14
2023-02-09T17:41:34.388Z,0.21
2023-02-09T17:44:39.141Z,0.24
2023-02-09T17:47:03.725Z,0.21
2023-02-09T17:49:31.308Z,0.06
2023-02-09T17:51:58.838Z,0.11
2023-02-09T17:54:28.110Z,0.16
2023-02-09T17:56:55.717Z,0.01
2023-02-09T17:59:25.036Z,0.11
2023-02-09T18:01:55.526Z,0.17
2023-02-09T18:04:28.942Z,0.21
2023-02-09T18:06:58.852Z,0.24
2023-02-09T18:09:26.583Z,0.27
2023-02-09T18:11:59.633Z,0.28
2023-02-09T18:14:31.181Z,0.36
2023-02-09T18:16:59.019Z,0.31
2023-02-09T18:19:27.017Z,0.32
2023-02-09T18:21:59.803Z,0.38
2023-02-09T18:24:31.003Z,0.36
2023-02-09T18:26:59.044Z,0.32
2023-02-09T18:29:29.706Z,0.37
2023-02-09T18:32:02.290Z,0.43
2023-02-09T18:34:30.714Z,0.42
2023-02-09T18:36:58.524Z,0.44
2023-02-09T18:39:26.098Z,0.45
2023-02-09T18:41:56.565Z,0.41
2023-02-09T18:44:29.414Z,0.37
2023-02-09T18:47:00.731Z,0.44
2023-02-09T18:49:29.214Z,0.32
2023-02-09T18:51:57.334Z,0.31
2023-02-09T18:54:26.137Z,0.34
2023-02-09T18:56:54.880Z,0.39
2023-02-09T18:59:22.471Z,0.31
2023-02-09T19:01:51.019Z,0.36
2023-02-09T19:04:19.015Z,0.34
2023-02-09T19:06:46.773Z,0.32
2023-02-09T19:09:14.316Z,0.28
2023-02-09T19:11:41.920Z,0.29
2023-02-09T19:14:27.781Z,0.27
2023-02-09T19:16:55.382Z,0.24
2023-02-09T19:19:22.990Z,0.29
2023-02-09T19:21:53.146Z,0.33
2023-02-09T19:24:20.898Z,0.24
2023-02-09T19:26:48.537Z,0.14
2023-02-09T19:29:16.936Z,0.12
2023-02-09T19:31:44.434Z,0.11
2023-02-09T19:34:12.030Z,0.17
2023-02-09T19:36:39.527Z,-0.04
2023-02-09T19:39:07.093Z,-0.02
2023-02-09T19:41:34.688Z,-0.13
2023-02-09T19:44:02.245Z,-0.22
2023-02-09T19:46:29.816Z,-0.40
2023-02-09T19:48:57.891Z,-0.37
2023-02-09T19:51:25.607Z,-0.39
2023-02-09T19:53:53.117Z,-0.59
2023-02-09T19:56:23.947Z,-0.59
2023-02-09T19:58:52.560Z,-0.40
2023-02-09T20:01:21.151Z,-0.22
2023-02-09T20:03:49.846Z,-0.34
2023-02-09T20:06:17.422Z,-0.35
2023-02-09T20:08:45.092Z,-0.60
2023-02-09T20:11:18.191Z,-0.42
2023-02-09T20:13:48.943Z,-0.52
2023-02-09T20:16:25.469Z,-0.42
2023-02-09T20:18:54.071Z,-0.70
2023-02-09T20:21:23.638Z,-0.58
2023-02-09T20:23:55.626Z,-0.54
2023-02-09T20:26:30.037Z,-0.48
2023-02-09T20:28:58.283Z,-0.58
2023-02-09T20:31:28.534Z,-0.41
2023-02-09T20:33:56.670Z,-0.49
2023-02-09T20:36:25.625Z,-0.52
2023-02-09T20:38:53.421Z,-0.47
2023-02-09T20:41:20.974Z,-0.46
2023-02-09T20:44:06.812Z,-0.55
2023-02-09T20:46:53.098Z,-0.51
2023-02-09T20:49:20.702Z,-0.53
2023-02-09T20:51:48.184Z,-0.52
2023-02-09T20:54:16.227Z,-0.58
2023-02-09T20:56:43.936Z,-0.61
2023-02-09T20:59:12.093Z,-0.59
2023-02-09T21:01:40.648Z,-0.60
2023-02-09T21:04:09.281Z,-0.59
2023-02-09T21:06:37.929Z,-0.62
2023-02-09T21:09:11.022Z,-0.49
2023-02-09T21:11:38.768Z,-0.50
2023-02-09T21:14:06.270Z,-0.49
2023-02-09T21:16:33.836Z,-0.49
2023-02-09T21:19:01.566Z,-0.56
2023-02-09T21:21:29.762Z,-0.57
2023-02-09T21:23:57.385Z,-0.52
2023-02-09T21:26:25.149Z,-0.64
2023-02-09T21:28:57.695Z,-0.46
2023-02-09T21:31:28.048Z,-0.43
2023-02-09T21:33:55.758Z,-0.54
2023-02-09T21:36:23.293Z,-0.55
2023-02-09T21:38:50.959Z,-0.57
2023-02-09T21:41:39.836Z,-0.58
2023-02-09T21:44:10.014Z,-0.52
2023-02-09T21:46:37.553Z,-0.52
2023-02-09T21:49:05.435Z,-0.60
2023-02-09T21:51:32.924Z,-0.62
2023-02-09T21:54:00.476Z,-0.56
2023-02-09T21:56:28.049Z,-0.56
2023-02-09T21:58:55.823Z,-0.46
2023-02-09T22:01:23.363Z,-0.45
2023-02-09T22:03:57.408Z,-0.45
2023-02-09T22:06:25.993Z,-0.44
2023-02-09T22:08:53.889Z,-0.40
2023-02-09T22:11:21.486Z,-0.44
2023-02-09T22:13:48.989Z,-0.32
2023-02-09T22:16:20.014Z,-0.22
2023-02-09T22:18:47.628Z,-0.47
2023-02-09T22:21:15.257Z,-0.25
2023-02-09T22:23:42.940Z,-0.16
2023-02-09T22:26:10.908Z,-0.21
2023-02-09T22:28:38.401Z,-0.20
2023-02-09T22:31:14.600Z,-0.15
2023-02-09T22:33:42.288Z,-0.11
2023-02-09T22:36:17.966Z,-0.13
2023-02-09T22:38:46.046Z,-0.09
2023-02-09T22:41:22.364Z,-0.03
2023-02-09T22:44:05.758Z,0.29
2023-02-09T22:46:36.407Z,0.27
2023-02-09T22:49:07.702Z,0.36
2023-02-09T22:51:36.686Z,0.41
2023-02-09T22:54:05.459Z,0.20
2023-02-09T22:56:33.394Z,0.35
2023-02-09T22:59:02.157Z,0.41
2023-02-09T23:01:30.378Z,0.44
2023-02-09T23:03:58.617Z,0.53
2023-02-09T23:06:28.750Z,0.57
2023-02-09T23:09:01.950Z,0.56
2023-02-09T23:11:31.074Z,0.53
2023-02-09T23:14:08.941Z,0.52
2023-02-09T23:16:38.257Z,0.60
2023-02-09T23:19:08.337Z,0.64
2023-02-09T23:21:39.072Z,0.67
2023-02-09T23:24:07.620Z,0.70
2023-02-09T23:26:35.930Z,0.69
2023-02-09T23:29:06.960Z,0.74
2023-02-09T23:31:35.401Z,0.62
2023-02-09T23:34:02.968Z,0.55
2023-02-09T23:36:32.266Z,0.63
2023-02-09T23:39:05.844Z,0.78
2023-02-09T23:41:34.085Z,0.73
2023-02-09T23:44:02.088Z,0.70
2023-02-09T23:46:29.834Z,0.60
2023-02-09T23:48:58.389Z,0.69
2023-02-09T23:51:29.915Z,0.70
2023-02-09T23:53:59.924Z,0.58
2023-02-09T23:56:30.940Z,0.55
2023-02-09T23:58:59.415Z,0.43
